Time;durP1;ratioP1;P1;durP2;ratioP2;P2;SDS_P1;SDS_P2;PMS_P1;PMS_P2;Temp;Humidity;BMP_temperature;BMP_pressure;BME280_temperature;BME280_humidity;BME280_pressure;Samples;Min_cycle;Max_cycle;Signal;HPM_P1;HPM_P2
2021/03/06 00:01:56;;;;;;;0.10;0.10;;;;;;;;;;5034701;28;20194;-70
2021/03/06 00:04:23;;;;;;;0.30;0.30;;;;;;;;;;5038521;28;20185;-68
2021/03/06 00:06:49;;;;;;;0.30;0.30;;;;;;;;;;5043045;28;20209;-69
2021/03/06 00:09:15;;;;;;;0.10;0.10;;;;;;;;;;5036298;28;20174;-70
2021/03/06 00:11:41;;;;;;;1.00;1.00;;;;;;;;;;5038100;28;20204;-69
2021/03/06 00:14:07;;;;;;;0.08;0.08;;;;;;;;;;5039743;28;20181;-68
2021/03/06 00:16:34;;;;;;;0.25;0.25;;;;;;;;;;5037424;28;20189;-68
2021/03/06 00:19:00;;;;;;;0.20;0.20;;;;;;;;;;5038307;28;20189;-68
2021/03/06 00:21:26;;;;;;;0.20;0.20;;;;;;;;;;5036196;28;20189;-69
2021/03/06 00:23:52;;;;;;;0.40;0.40;;;;;;;;;;5035297;28;20173;-70
2021/03/06 00:26:18;;;;;;;0.10;0.10;;;;;;;;;;5036228;28;20180;-69
2021/03/06 00:28:45;;;;;;;0.10;0.10;;;;;;;;;;5037511;28;20173;-69
2021/03/06 00:31:11;;;;;;;5.05;1.00;;;;;;;;;;5037802;28;20253;-68
2021/03/06 00:33:37;;;;;;;0.10;0.10;;;;;;;;;;5036227;28;20174;-69
2021/03/06 00:36:03;;;;;;;0.17;0.17;;;;;;;;;;5037312;28;20162;-69
2021/03/06 00:38:30;;;;;;;0.10;0.10;;;;;;;;;;5037800;28;20280;-69
2021/03/06 00:40:56;;;;;;;0.10;0.10;;;;;;;;;;5035790;28;20198;-68
2021/03/06 00:43:22;;;;;;;0.10;0.10;;;;;;;;;;5037679;28;20225;-68
2021/03/06 00:45:48;;;;;;;0.10;0.10;;;;;;;;;;5036082;28;20195;-68
2021/03/06 00:48:14;;;;;;;0.20;0.20;;;;;;;;;;5034416;28;20210;-69
2021/03/06 00:50:41;;;;;;;0.10;0.10;;;;;;;;;;5036352;28;20192;-69
2021/03/06 00:53:07;;;;;;;0.10;0.10;;;;;;;;;;5037152;28;20169;-69
2021/03/06 00:55:33;;;;;;;0.10;0.10;;;;;;;;;;5035966;28;20161;-69
2021/03/06 00:57:59;;;;;;;0.65;0.65;;;;;;;;;;5037804;28;20177;-69
2021/03/06 01:00:25;;;;;;;2.40;0.75;;;;;;;;;;5036805;28;20198;-69
2021/03/06 01:02:52;;;;;;;0.10;0.10;;;;;;;;;;5034884;28;20191;-70
2021/03/06 01:05:18;;;;;;;0.10;0.10;;;;;;;;;;5037834;28;20180;-69
2021/03/06 01:07:44;;;;;;;0.25;0.25;;;;;;;;;;5036522;28;20165;-69
2021/03/06 01:10:15;;;;;;;0.82;0.82;;;;;;;;;;5036980;28;20224;-68
2021/03/06 01:12:41;;;;;;;0.13;0.13;;;;;;;;;;5037827;28;20197;-69
2021/03/06 01:15:08;;;;;;;0.10;0.10;;;;;;;;;;5042813;28;20180;-69
2021/03/06 01:17:34;;;;;;;0.35;0.35;;;;;;;;;;5042345;28;20513;-69
2021/03/06 01:20:00;;;;;;;0.10;0.10;;;;;;;;;;5040508;28;20201;-69
2021/03/06 01:22:27;;;;;;;0.20;0.20;;;;;;;;;;5040498;28;20216;-68
2021/03/06 01:24:53;;;;;;;0.10;0.10;;;;;;;;;;5042575;28;20196;-69
2021/03/06 01:27:19;;;;;;;0.10;0.10;;;;;;;;;;5041182;28;20177;-68
2021/03/06 01:29:45;;;;;;;0.17;0.17;;;;;;;;;;5039636;28;20173;-69
2021/03/06 01:32:12;;;;;;;0.38;0.38;;;;;;;;;;5040872;28;20197;-69
2021/03/06 01:34:38;;;;;;;0.10;0.10;;;;;;;;;;5041217;28;20174;-69
2021/03/06 01:37:04;;;;;;;0.20;0.20;;;;;;;;;;5040690;28;20646;-70
2021/03/06 01:39:30;;;;;;;0.10;0.10;;;;;;;;;;5042148;28;20200;-69
2021/03/06 01:41:56;;;;;;;0.40;0.40;;;;;;;;;;5039315;28;20193;-69
2021/03/06 01:44:23;;;;;;;0.10;0.10;;;;;;;;;;5038307;28;20233;-69
2021/03/06 01:46:50;;;;;;;0.55;0.55;;;;;;;;;;5032371;28;20576;-69
2021/03/06 01:49:16;;;;;;;0.10;0.10;;;;;;;;;;5031000;28;20240;-70
2021/03/06 01:51:42;;;;;;;0.68;0.68;;;;;;;;;;5032208;28;20281;-69
2021/03/06 01:54:09;;;;;;;0.10;0.10;;;;;;;;;;5030885;28;20174;-68
2021/03/06 01:56:35;;;;;;;0.55;0.55;;;;;;;;;;5031912;28;20764;-69
2021/03/06 01:59:01;;;;;;;0.10;0.10;;;;;;;;;;5032039;28;20228;-69
2021/03/06 02:01:27;;;;;;;0.10;0.10;;;;;;;;;;5038053;28;20309;-71
2021/03/06 02:03:54;;;;;;;0.20;0.20;;;;;;;;;;5051714;28;20161;-68
2021/03/06 02:06:20;;;;;;;0.57;0.57;;;;;;;;;;5051829;28;20169;-68
2021/03/06 02:08:49;;;;;;;0.20;0.20;;;;;;;;;;5050415;28;20173;-69
2021/03/06 02:11:35;;;;;;;0.10;0.10;;;;;;;;;;5051801;28;20220;-69
2021/03/06 02:14:01;;;;;;;2.80;1.20;;;;;;;;;;5011284;28;20192;-69
2021/03/06 02:16:38;;;;;;;0.10;0.10;;;;;;;;;;5051593;28;20174;-70
2021/03/06 02:19:23;;;;;;;0.20;0.20;;;;;;;;;;5051700;28;20297;-70
2021/03/06 02:22:12;;;;;;;0.10;0.10;;;;;;;;;;5051462;28;20197;-69
2021/03/06 02:24:47;;;;;;;0.57;0.57;;;;;;;;;;5050521;28;20605;-68
2021/03/06 02:27:14;;;;;;;0.45;0.45;;;;;;;;;;5050208;28;20219;-69
2021/03/06 02:29:59;;;;;;;0.47;0.47;;;;;;;;;;5050101;28;20630;-69
2021/03/06 02:32:27;;;;;;;0.68;0.68;;;;;;;;;;5050050;28;20216;-70
2021/03/06 02:35:06;;;;;;;0.10;0.10;;;;;;;;;;5051396;28;20192;-68
2021/03/06 02:37:34;;;;;;;0.10;0.10;;;;;;;;;;5050166;28;20227;-68
2021/03/06 02:40:01;;;;;;;0.50;0.50;;;;;;;;;;5050065;28;20203;-70
2021/03/06 02:42:29;;;;;;;0.10;0.10;;;;;;;;;;5051096;28;20196;-69
2021/03/06 02:44:57;;;;;;;0.28;0.28;;;;;;;;;;5051148;28;20161;-71
2021/03/06 02:47:23;;;;;;;0.10;0.10;;;;;;;;;;5051035;28;20220;-70
2021/03/06 02:49:53;;;;;;;0.10;0.10;;;;;;;;;;5051096;28;20233;-69
2021/03/06 02:52:19;;;;;;;0.10;0.10;;;;;;;;;;5050825;28;20197;-68
2021/03/06 02:54:46;;;;;;;0.10;0.10;;;;;;;;;;5050777;28;20162;-69
2021/03/06 02:57:18;;;;;;;0.25;0.25;;;;;;;;;;5049452;28;20186;-69
2021/03/06 02:59:45;;;;;;;0.20;0.20;;;;;;;;;;5050822;28;20208;-70
2021/03/06 03:02:14;;;;;;;0.10;0.10;;;;;;;;;;5050873;28;20213;-69
2021/03/06 03:04:59;;;;;;;0.20;0.20;;;;;;;;;;5050725;28;20245;-69
2021/03/06 03:07:31;;;;;;;0.20;0.20;;;;;;;;;;5050761;28;20164;-68
2021/03/06 03:10:00;;;;;;;0.65;0.65;;;;;;;;;;5050248;28;20193;-69
2021/03/06 03:12:30;;;;;;;0.38;0.38;;;;;;;;;;5050161;28;20203;-68
2021/03/06 03:15:10;;;;;;;0.10;0.10;;;;;;;;;;5050582;28;20284;-70
2021/03/06 03:17:46;;;;;;;0.10;0.10;;;;;;;;;;5047156;28;20196;-70
2021/03/06 03:20:21;;;;;;;0.10;0.10;;;;;;;;;;5030584;28;20207;-70
2021/03/06 03:22:49;;;;;;;0.65;0.65;;;;;;;;;;5030456;28;20204;-68
2021/03/06 03:25:17;;;;;;;0.10;0.10;;;;;;;;;;5029449;28;20170;-70
2021/03/06 03:27:44;;;;;;;0.30;0.30;;;;;;;;;;5030493;28;20193;-69
2021/03/06 03:30:12;;;;;;;0.40;0.40;;;;;;;;;;5029074;28;20178;-70
2021/03/06 03:32:39;;;;;;;0.10;0.10;;;;;;;;;;5030297;28;20201;-70
2021/03/06 03:35:06;;;;;;;4.10;1.80;;;;;;;;;;5028964;28;20174;-68
2021/03/06 03:37:34;;;;;;;0.10;0.10;;;;;;;;;;5028983;28;20642;-70
2021/03/06 03:40:02;;;;;;;0.10;0.10;;;;;;;;;;5030182;28;20220;-70
2021/03/06 03:42:29;;;;;;;0.95;0.95;;;;;;;;;;5028770;28;20189;-71
2021/03/06 03:44:55;;;;;;;0.20;0.20;;;;;;;;;;5030246;28;20162;-68
2021/03/06 03:47:21;;;;;;;0.13;0.13;;;;;;;;;;5028549;28;20233;-69
2021/03/06 03:49:48;;;;;;;0.10;0.10;;;;;;;;;;5028672;28;20189;-68
2021/03/06 03:52:14;;;;;;;0.10;0.10;;;;;;;;;;5030003;28;20197;-69
2021/03/06 03:54:41;;;;;;;0.10;0.10;;;;;;;;;;5028479;28;20280;-69
2021/03/06 03:57:10;;;;;;;0.57;0.57;;;;;;;;;;5029776;28;20162;-67
2021/03/06 03:59:36;;;;;;;0.20;0.20;;;;;;;;;;5029710;28;20201;-70
2021/03/06 04:02:02;;;;;;;0.10;0.10;;;;;;;;;;5028682;28;20220;-68
2021/03/06 04:04:29;;;;;;;0.10;0.10;;;;;;;;;;5029882;28;20169;-68
2021/03/06 04:06:55;;;;;;;0.20;0.20;;;;;;;;;;5029795;28;20166;-68
2021/03/06 04:09:22;;;;;;;0.10;0.10;;;;;;;;;;5028274;28;20242;-68
2021/03/06 04:11:49;;;;;;;0.20;0.20;;;;;;;;;;5029149;28;20236;-68
2021/03/06 04:14:15;;;;;;;0.20;0.20;;;;;;;;;;5029501;28;20185;-69
2021/03/06 04:16:42;;;;;;;0.22;0.22;;;;;;;;;;5028109;28;20177;-69
2021/03/06 04:19:08;;;;;;;0.17;0.17;;;;;;;;;;5027747;28;20193;-68
2021/03/06 04:21:34;;;;;;;0.30;0.30;;;;;;;;;;5028156;28;20198;-68
2021/03/06 04:24:00;;;;;;;0.10;0.10;;;;;;;;;;5029257;28;20237;-68
2021/03/06 04:26:27;;;;;;;0.10;0.10;;;;;;;;;;5029005;28;20163;-68
2021/03/06 04:28:53;;;;;;;0.10;0.10;;;;;;;;;;5029409;28;20162;-69
2021/03/06 04:31:19;;;;;;;0.20;0.20;;;;;;;;;;5027769;28;20244;-70
2021/03/06 04:33:46;;;;;;;0.10;0.10;;;;;;;;;;5029382;28;20166;-70
2021/03/06 04:36:12;;;;;;;1.17;1.17;;;;;;;;;;5029026;28;20166;-69
2021/03/06 04:38:38;;;;;;;2.17;1.27;;;;;;;;;;5027574;28;20221;-69
2021/03/06 04:41:05;;;;;;;0.25;0.25;;;;;;;;;;5029076;28;20193;-68
2021/03/06 04:43:31;;;;;;;0.20;0.20;;;;;;;;;;5028948;28;20185;-70
2021/03/06 04:45:57;;;;;;;0.10;0.10;;;;;;;;;;5029087;28;20363;-69
2021/03/06 04:48:23;;;;;;;0.10;0.10;;;;;;;;;;5028298;28;20217;-68
2021/03/06 04:50:49;;;;;;;0.15;0.15;;;;;;;;;;5028858;28;20164;-68
2021/03/06 04:53:15;;;;;;;0.10;0.10;;;;;;;;;;5028988;28;20225;-68
2021/03/06 04:55:42;;;;;;;0.10;0.10;;;;;;;;;;5027321;28;20220;-69
2021/03/06 04:58:08;;;;;;;0.10;0.10;;;;;;;;;;5028406;28;20166;-69
2021/03/06 05:00:34;;;;;;;0.20;0.20;;;;;;;;;;5027355;28;20201;-69
2021/03/06 05:03:00;;;;;;;0.10;0.10;;;;;;;;;;5028417;28;20162;-69
2021/03/06 05:05:26;;;;;;;0.25;0.25;;;;;;;;;;5028955;28;20162;-68
2021/03/06 05:07:53;;;;;;;0.20;0.20;;;;;;;;;;5028408;28;20184;-69
2021/03/06 05:10:21;;;;;;;0.10;0.10;;;;;;;;;;5027431;28;20170;-69
2021/03/06 05:12:47;;;;;;;0.10;0.10;;;;;;;;;;5028514;28;20347;-68
2021/03/06 05:15:14;;;;;;;0.63;0.63;;;;;;;;;;5027611;28;20176;-68
2021/03/06 05:17:40;;;;;;;1.55;1.45;;;;;;;;;;5028851;28;20201;-68
2021/03/06 05:20:07;;;;;;;0.10;0.10;;;;;;;;;;5028480;28;20209;-68
2021/03/06 05:22:34;;;;;;;0.10;0.10;;;;;;;;;;5028448;28;20328;-70
2021/03/06 05:25:00;;;;;;;0.20;0.20;;;;;;;;;;5027242;28;20199;-69
2021/03/06 05:27:26;;;;;;;0.10;0.10;;;;;;;;;;5028550;28;20241;-68
2021/03/06 05:29:54;;;;;;;0.43;0.43;;;;;;;;;;5028707;28;20166;-69
2021/03/06 05:32:20;;;;;;;0.10;0.10;;;;;;;;;;5028190;28;20190;-69
2021/03/06 05:34:46;;;;;;;0.10;0.10;;;;;;;;;;5028085;28;20225;-69
2021/03/06 05:37:12;;;;;;;0.30;0.30;;;;;;;;;;5028282;28;20170;-69
2021/03/06 05:39:38;;;;;;;3.00;1.00;;;;;;;;;;5026911;28;20198;-70
2021/03/06 05:42:05;;;;;;;0.52;0.52;;;;;;;;;;5028288;28;20204;-69
2021/03/06 05:44:34;;;;;;;0.10;0.10;;;;;;;;;;5028420;28;20212;-69
2021/03/06 05:47:01;;;;;;;0.10;0.10;;;;;;;;;;5028120;28;20212;-68
2021/03/06 05:49:27;;;;;;;0.10;0.10;;;;;;;;;;5028120;28;20697;-70
2021/03/06 05:51:54;;;;;;;0.20;0.20;;;;;;;;;;5028111;28;20200;-70
2021/03/06 05:54:22;;;;;;;0.15;0.15;;;;;;;;;;5028360;28;20228;-68
2021/03/06 05:56:49;;;;;;;0.10;0.10;;;;;;;;;;5027846;28;20162;-69
2021/03/06 05:59:15;;;;;;;0.20;0.20;;;;;;;;;;5028346;28;20748;-69
2021/03/06 06:01:43;;;;;;;0.10;0.10;;;;;;;;;;5030554;28;20201;-70
2021/03/06 06:04:10;;;;;;;0.20;0.20;;;;;;;;;;5031927;28;20166;-69
2021/03/06 06:06:37;;;;;;;0.10;0.10;;;;;;;;;;5031960;28;20162;-69
2021/03/06 06:09:05;;;;;;;0.10;0.10;;;;;;;;;;5033779;28;20192;-69
2021/03/06 06:11:31;;;;;;;0.10;0.10;;;;;;;;;;5051392;28;20193;-69
2021/03/06 06:13:59;;;;;;;0.17;0.17;;;;;;;;;;5051330;28;20220;-69
2021/03/06 06:16:29;;;;;;;0.10;0.10;;;;;;;;;;5051502;28;20187;-69
2021/03/06 06:18:56;;;;;;;0.10;0.10;;;;;;;;;;5051456;28;20248;-69
2021/03/06 06:21:38;;;;;;;0.55;0.55;;;;;;;;;;5051134;28;20189;-69
2021/03/06 06:24:14;;;;;;;0.20;0.20;;;;;;;;;;5049999;28;20176;-69
2021/03/06 06:26:41;;;;;;;0.10;0.10;;;;;;;;;;5051340;28;20157;-69
2021/03/06 06:29:07;;;;;;;0.10;0.10;;;;;;;;;;5045980;28;20197;-68
2021/03/06 06:31:34;;;;;;;0.40;0.40;;;;;;;;;;5042857;28;20216;-69
2021/03/06 06:34:00;;;;;;;0.25;0.25;;;;;;;;;;5039827;28;21033;-69
2021/03/06 06:36:40;;;;;;;0.10;0.10;;;;;;;;;;5039693;28;20193;-69
2021/03/06 06:39:10;;;;;;;0.10;0.10;;;;;;;;;;5043381;28;20211;-70
2021/03/06 06:41:49;;;;;;;0.10;0.10;;;;;;;;;;5038193;28;20186;-69
2021/03/06 06:44:15;;;;;;;0.10;0.10;;;;;;;;;;5039518;28;20253;-69
2021/03/06 06:46:42;;;;;;;0.10;0.10;;;;;;;;;;5046199;28;20260;-70
2021/03/06 06:49:08;;;;;;;0.57;0.32;;;;;;;;;;5050695;28;20236;-70
2021/03/06 06:51:34;;;;;;;0.10;0.10;;;;;;;;;;5042994;28;20201;-71
2021/03/06 06:54:10;;;;;;;0.10;0.10;;;;;;;;;;5040037;28;20189;-70
2021/03/06 06:56:36;;;;;;;0.10;0.10;;;;;;;;;;5039514;28;20595;-70
2021/03/06 06:59:09;;;;;;;0.10;0.10;;;;;;;;;;5036971;28;20741;-70
2021/03/06 07:01:38;;;;;;;0.20;0.20;;;;;;;;;;5037106;28;20197;-70
2021/03/06 07:04:09;;;;;;;0.15;0.15;;;;;;;;;;5037820;28;20228;-70
2021/03/06 07:06:35;;;;;;;0.10;0.10;;;;;;;;;;5038219;28;20168;-70
2021/03/06 07:09:09;;;;;;;0.10;0.10;;;;;;;;;;5033810;28;20225;-69
2021/03/06 07:11:36;;;;;;;0.57;0.57;;;;;;;;;;5029477;28;20186;-70
2021/03/06 07:14:02;;;;;;;0.10;0.10;;;;;;;;;;5030733;28;20167;-70
2021/03/06 07:16:47;;;;;;;0.10;0.10;;;;;;;;;;5029237;28;20554;-70
2021/03/06 07:19:13;;;;;;;0.15;0.15;;;;;;;;;;5028934;28;20214;-70
2021/03/06 07:21:46;;;;;;;0.10;0.10;;;;;;;;;;5030157;28;20162;-69
2021/03/06 07:24:12;;;;;;;0.57;0.57;;;;;;;;;;5030586;28;20157;-70
2021/03/06 07:26:38;;;;;;;0.20;0.20;;;;;;;;;;5030301;28;20188;-69
2021/03/06 07:29:05;;;;;;;0.20;0.20;;;;;;;;;;5029208;28;20201;-70
2021/03/06 07:31:31;;;;;;;0.10;0.10;;;;;;;;;;5030256;28;20189;-69
2021/03/06 07:33:58;;;;;;;0.10;0.10;;;;;;;;;;5030143;28;20177;-70
2021/03/06 07:36:26;;;;;;;0.10;0.10;;;;;;;;;;5029922;28;20181;-70
2021/03/06 07:38:53;;;;;;;0.10;0.10;;;;;;;;;;5029651;28;20229;-70
2021/03/06 07:41:22;;;;;;;0.10;0.10;;;;;;;;;;5029723;28;20641;-69
2021/03/06 07:43:51;;;;;;;0.10;0.10;;;;;;;;;;5029822;28;20193;-71
2021/03/06 07:46:17;;;;;;;0.30;0.30;;;;;;;;;;5028627;28;20565;-70
2021/03/06 07:48:48;;;;;;;0.10;0.10;;;;;;;;;;5029594;28;20239;-70
2021/03/06 07:51:16;;;;;;;0.15;0.15;;;;;;;;;;5029254;28;20169;-70
2021/03/06 07:53:46;;;;;;;0.10;0.10;;;;;;;;;;5029846;28;20225;-70
2021/03/06 07:56:13;;;;;;;0.00;0.00;;;;;;;;;;5029594;28;20162;-70
2021/03/06 07:58:52;;;;;;;0.10;0.10;;;;;;;;;;5029487;28;20221;-70
2021/03/06 08:01:29;;;;;;;0.85;0.85;;;;;;;;;;5029555;28;20161;-70
2021/03/06 08:03:55;;;;;;;0.20;0.20;;;;;;;;;;5029352;28;20169;-70
2021/03/06 08:06:28;;;;;;;0.30;0.30;;;;;;;;;;5029607;28;20161;-70
2021/03/06 08:08:55;;;;;;;0.08;0.08;;;;;;;;;;5029326;28;20202;-69
2021/03/06 08:11:23;;;;;;;0.00;0.00;;;;;;;;;;5028311;28;20190;-69
2021/03/06 08:13:53;;;;;;;0.00;0.00;;;;;;;;;;5032472;28;20181;-69
2021/03/06 08:18:48;;;;;;;0.60;0.47;;;;;;;;;;5029466;28;20205;-70
2021/03/06 08:21:33;;;;;;;0.00;0.00;;;;;;;;;;5029180;28;20167;-70
2021/03/06 08:24:27;;;;;;;0.10;0.10;;;;;;;;;;5026823;28;20180;-69
2021/03/06 08:27:02;;;;;;;0.00;0.00;;;;;;;;;;5039047;28;20196;-68
2021/03/06 08:29:29;;;;;;;0.10;0.10;;;;;;;;;;5048831;28;20209;-70
2021/03/06 08:31:58;;;;;;;0.00;0.00;;;;;;;;;;5048750;28;20292;-69
2021/03/06 08:34:38;;;;;;;0.20;0.20;;;;;;;;;;5049133;28;20207;-68
2021/03/06 08:37:16;;;;;;;0.17;0.17;;;;;;;;;;5047378;28;20200;-70
2021/03/06 08:39:43;;;;;;;0.10;0.10;;;;;;;;;;5047577;28;20235;-70
2021/03/06 08:42:10;;;;;;;0.80;0.80;;;;;;;;;;5047394;28;20181;-70
2021/03/06 08:44:37;;;;;;;0.13;0.13;;;;;;;;;;5049029;28;20195;-71
2021/03/06 08:47:03;;;;;;;0.00;0.00;;;;;;;;;;5048778;28;20162;-70
2021/03/06 08:49:31;;;;;;;0.35;0.35;;;;;;;;;;5048678;28;20205;-70
2021/03/06 08:51:57;;;;;;;0.00;0.00;;;;;;;;;;5049108;28;20164;-69
2021/03/06 08:54:24;;;;;;;0.10;0.10;;;;;;;;;;5049031;28;20161;-71
2021/03/06 08:56:51;;;;;;;0.98;0.52;;;;;;;;;;5047488;28;20176;-70
2021/03/06 08:59:17;;;;;;;0.35;0.35;;;;;;;;;;5047420;28;20326;-70
2021/03/06 09:01:44;;;;;;;0.00;0.00;;;;;;;;;;5047488;28;20189;-70
2021/03/06 09:04:10;;;;;;;0.20;0.20;;;;;;;;;;5047045;28;20158;-70
2021/03/06 09:06:37;;;;;;;0.00;0.00;;;;;;;;;;5029093;28;20253;-70
2021/03/06 09:09:13;;;;;;;0.10;0.10;;;;;;;;;;5027320;28;20217;-70
2021/03/06 09:12:12;;;;;;;0.10;0.10;;;;;;;;;;5027429;28;20169;-69
2021/03/06 09:14:41;;;;;;;0.08;0.08;;;;;;;;;;4987825;28;20195;-70
2021/03/06 09:17:09;;;;;;;0.10;0.10;;;;;;;;;;4971411;28;20191;-72
2021/03/06 09:19:36;;;;;;;0.00;0.00;;;;;;;;;;4971228;28;20731;-71
2021/03/06 09:22:03;;;;;;;0.00;0.00;;;;;;;;;;4987478;28;20242;-69
2021/03/06 09:24:55;;;;;;;0.00;0.00;;;;;;;;;;4987218;28;20207;-68
2021/03/06 09:27:21;;;;;;;0.00;0.00;;;;;;;;;;4983742;28;20213;-69
2021/03/06 09:29:47;;;;;;;0.20;0.20;;;;;;;;;;4985504;28;20172;-69
2021/03/06 09:32:14;;;;;;;0.30;0.30;;;;;;;;;;4970042;28;20160;-70
2021/03/06 09:34:45;;;;;;;0.10;0.10;;;;;;;;;;4989393;28;20164;-70
2021/03/06 09:37:18;;;;;;;0.00;0.00;;;;;;;;;;4989335;28;20211;-69
2021/03/06 09:39:45;;;;;;;0.05;0.05;;;;;;;;;;4990630;28;20317;-69
2021/03/06 09:42:16;;;;;;;0.10;0.10;;;;;;;;;;4991205;28;20163;-69
2021/03/06 09:44:51;;;;;;;0.10;0.10;;;;;;;;;;4975117;28;20198;-69
2021/03/06 09:47:24;;;;;;;0.52;0.52;;;;;;;;;;4990850;28;20264;-70
2021/03/06 09:49:50;;;;;;;0.30;0.30;;;;;;;;;;4998727;28;20306;-69
2021/03/06 09:52:16;;;;;;;0.20;0.20;;;;;;;;;;5012572;28;20185;-70
2021/03/06 09:54:42;;;;;;;0.20;0.20;;;;;;;;;;5012540;28;20167;-70
2021/03/06 09:57:09;;;;;;;0.60;0.52;;;;;;;;;;5012550;28;20202;-69
2021/03/06 09:59:39;;;;;;;0.00;0.00;;;;;;;;;;5011067;28;20267;-69
2021/03/06 10:02:06;;;;;;;0.10;0.10;;;;;;;;;;5012609;28;20167;-69
2021/03/06 10:04:32;;;;;;;0.05;0.05;;;;;;;;;;5012400;28;20167;-70
2021/03/06 10:07:00;;;;;;;0.30;0.30;;;;;;;;;;5027923;28;20170;-69
2021/03/06 10:09:33;;;;;;;0.20;0.20;;;;;;;;;;5030712;28;20173;-68
2021/03/06 10:12:15;;;;;;;0.10;0.10;;;;;;;;;;5031929;28;20645;-70
2021/03/06 10:14:41;;;;;;;0.05;0.05;;;;;;;;;;5032062;28;20159;-70
2021/03/06 10:17:09;;;;;;;0.28;0.28;;;;;;;;;;5030466;28;20177;-69
2021/03/06 10:19:49;;;;;;;0.30;0.30;;;;;;;;;;5031858;28;20190;-68
2021/03/06 10:22:16;;;;;;;0.10;0.10;;;;;;;;;;5030561;28;20170;-69
2021/03/06 10:24:53;;;;;;;0.00;0.00;;;;;;;;;;5031866;28;20158;-69
2021/03/06 10:27:39;;;;;;;0.00;0.00;;;;;;;;;;5031869;28;20162;-69
2021/03/06 10:30:12;;;;;;;0.15;0.15;;;;;;;;;;5030109;28;20198;-68
2021/03/06 10:32:39;;;;;;;0.60;0.60;;;;;;;;;;5031713;28;20201;-70
2021/03/06 10:35:05;;;;;;;0.10;0.10;;;;;;;;;;5031587;28;20170;-70
2021/03/06 10:37:32;;;;;;;0.10;0.10;;;;;;;;;;5030644;28;20186;-70
2021/03/06 10:40:07;;;;;;;0.20;0.20;;;;;;;;;;5031411;28;20218;-70
2021/03/06 10:42:45;;;;;;;0.73;0.73;;;;;;;;;;5031153;28;20150;-69
2021/03/06 10:45:30;;;;;;;0.08;0.08;;;;;;;;;;5024933;28;20237;-66
2021/03/06 10:47:58;;;;;;;0.10;0.10;;;;;;;;;;5035728;28;20217;-69
2021/03/06 10:50:26;;;;;;;0.10;0.10;;;;;;;;;;5050207;28;20209;-69
2021/03/06 10:52:53;;;;;;;0.63;0.40;;;;;;;;;;5050683;28;20225;-69
2021/03/06 10:55:33;;;;;;;0.10;0.10;;;;;;;;;;5049153;28;20173;-69
2021/03/06 10:57:59;;;;;;;0.00;0.00;;;;;;;;;;5048538;28;20176;-69
2021/03/06 11:00:25;;;;;;;0.00;0.00;;;;;;;;;;5050671;28;20209;-69
2021/03/06 11:02:55;;;;;;;0.05;0.05;;;;;;;;;;5050905;28;20178;-69
2021/03/06 11:05:22;;;;;;;0.10;0.10;;;;;;;;;;5050651;28;20157;-69
2021/03/06 11:07:48;;;;;;;0.00;0.00;;;;;;;;;;5049582;28;20227;-69
2021/03/06 11:10:16;;;;;;;0.38;0.38;;;;;;;;;;5050594;28;20193;-69
2021/03/06 11:12:56;;;;;;;0.10;0.10;;;;;;;;;;5049168;28;20179;-69
2021/03/06 11:15:23;;;;;;;0.30;0.30;;;;;;;;;;5050308;28;20184;-69
2021/03/06 11:17:54;;;;;;;0.00;0.00;;;;;;;;;;5048283;28;20189;-68
2021/03/06 11:20:21;;;;;;;0.35;0.20;;;;;;;;;;5050204;28;20201;-69
2021/03/06 11:22:48;;;;;;;0.00;0.00;;;;;;;;;;5050151;28;20221;-69
2021/03/06 11:25:15;;;;;;;0.10;0.10;;;;;;;;;;5048721;28;20260;-69
2021/03/06 11:27:47;;;;;;;0.10;0.10;;;;;;;;;;5048969;28;20173;-68
2021/03/06 11:30:14;;;;;;;0.35;0.30;;;;;;;;;;5048922;28;20288;-68
2021/03/06 11:32:40;;;;;;;0.10;0.10;;;;;;;;;;5050133;28;20161;-68
2021/03/06 11:35:07;;;;;;;0.00;0.00;;;;;;;;;;5048836;28;20180;-68
2021/03/06 11:37:33;;;;;;;0.10;0.10;;;;;;;;;;5050106;28;20157;-69
2021/03/06 11:40:00;;;;;;;0.10;0.10;;;;;;;;;;5049015;28;20201;-69
2021/03/06 11:42:26;;;;;;;0.57;0.30;;;;;;;;;;5048377;28;20212;-69
2021/03/06 11:44:52;;;;;;;0.00;0.00;;;;;;;;;;5050044;28;20158;-69
2021/03/06 11:47:18;;;;;;;0.05;0.05;;;;;;;;;;5049494;28;20176;-69
2021/03/06 11:49:44;;;;;;;0.00;0.00;;;;;;;;;;5049583;28;20201;-69
2021/03/06 11:52:10;;;;;;;0.30;0.30;;;;;;;;;;5049243;28;20162;-69
2021/03/06 11:54:36;;;;;;;0.10;0.10;;;;;;;;;;5048604;28;20181;-69
2021/03/06 11:57:03;;;;;;;0.00;0.00;;;;;;;;;;5048493;28;20241;-69
2021/03/06 11:59:29;;;;;;;0.10;0.10;;;;;;;;;;5049376;28;20193;-69
2021/03/06 12:01:55;;;;;;;0.22;0.22;;;;;;;;;;5047399;28;20180;-69
2021/03/06 12:04:21;;;;;;;0.10;0.10;;;;;;;;;;5049519;28;20158;-68
2021/03/06 12:06:47;;;;;;;0.20;0.20;;;;;;;;;;5049299;28;20239;-69
2021/03/06 12:09:13;;;;;;;0.60;0.50;;;;;;;;;;5049445;28;20193;-69
2021/03/06 12:11:40;;;;;;;0.22;0.22;;;;;;;;;;5049379;28;20652;-71
2021/03/06 12:14:06;;;;;;;0.43;0.43;;;;;;;;;;5048328;28;20184;-69
2021/03/06 12:16:34;;;;;;;0.10;0.10;;;;;;;;;;5048169;28;20229;-69
2021/03/06 12:19:00;;;;;;;0.10;0.10;;;;;;;;;;5049315;28;20189;-68
2021/03/06 12:21:27;;;;;;;0.10;0.10;;;;;;;;;;5048026;28;20200;-69
2021/03/06 12:23:53;;;;;;;0.00;0.00;;;;;;;;;;5048222;28;20201;-69
2021/03/06 12:26:19;;;;;;;0.08;0.08;;;;;;;;;;5047890;28;20219;-69
2021/03/06 12:28:45;;;;;;;0.32;0.32;;;;;;;;;;5049255;28;20169;-69
2021/03/06 12:31:11;;;;;;;0.25;0.25;;;;;;;;;;5049126;28;20212;-69
2021/03/06 12:33:38;;;;;;;0.00;0.00;;;;;;;;;;5047939;28;20241;-68
2021/03/06 12:36:04;;;;;;;0.95;0.68;;;;;;;;;;5047893;28;20189;-68
2021/03/06 12:38:30;;;;;;;0.00;0.00;;;;;;;;;;5049080;28;20166;-68
2021/03/06 12:40:56;;;;;;;0.10;0.10;;;;;;;;;;5049020;28;20193;-68
2021/03/06 12:43:24;;;;;;;0.10;0.10;;;;;;;;;;5047649;28;20608;-68
2021/03/06 12:45:50;;;;;;;0.10;0.10;;;;;;;;;;5047774;28;20189;-68
2021/03/06 12:48:16;;;;;;;0.20;0.20;;;;;;;;;;5048525;28;20245;-68
2021/03/06 12:50:42;;;;;;;0.25;0.25;;;;;;;;;;5047474;28;20181;-68
2021/03/06 12:53:09;;;;;;;0.00;0.00;;;;;;;;;;5047571;28;20184;-68
2021/03/06 12:55:35;;;;;;;0.10;0.10;;;;;;;;;;5048509;28;20208;-67
2021/03/06 12:58:01;;;;;;;0.20;0.20;;;;;;;;;;5048705;28;20195;-68
2021/03/06 13:00:28;;;;;;;0.70;0.57;;;;;;;;;;5047280;28;20201;-68
2021/03/06 13:02:55;;;;;;;0.10;0.10;;;;;;;;;;5048937;28;20150;-68
2021/03/06 13:05:21;;;;;;;0.00;0.00;;;;;;;;;;5048652;28;20252;-68
2021/03/06 13:07:47;;;;;;;0.10;0.10;;;;;;;;;;5048596;28;20173;-67
2021/03/06 13:10:13;;;;;;;0.00;0.00;;;;;;;;;;5054916;28;20176;-69
2021/03/06 13:12:39;;;;;;;0.00;0.00;;;;;;;;;;5054967;28;20157;-68
2021/03/06 13:15:07;;;;;;;0.15;0.15;;;;;;;;;;5055203;28;20165;-69
2021/03/06 13:17:33;;;;;;;0.10;0.10;;;;;;;;;;5055139;28;20173;-68
2021/03/06 13:19:59;;;;;;;0.08;0.08;;;;;;;;;;5055212;28;20192;-68
2021/03/06 13:22:25;;;;;;;0.00;0.00;;;;;;;;;;5048376;28;20260;-68
2021/03/06 13:24:52;;;;;;;0.00;0.00;;;;;;;;;;5054294;28;20177;-67
2021/03/06 13:27:18;;;;;;;0.00;0.00;;;;;;;;;;5054536;28;20205;-74
2021/03/06 13:29:44;;;;;;;0.15;0.15;;;;;;;;;;5052996;28;20177;-74
2021/03/06 13:32:10;;;;;;;0.30;0.30;;;;;;;;;;5055130;28;20172;-74
2021/03/06 13:34:36;;;;;;;0.00;0.00;;;;;;;;;;5055160;28;20229;-75
2021/03/06 13:37:02;;;;;;;0.00;0.00;;;;;;;;;;5054756;28;20219;-76
2021/03/06 13:39:29;;;;;;;0.20;0.20;;;;;;;;;;5053659;28;20272;-76
2021/03/06 13:41:55;;;;;;;0.80;0.80;;;;;;;;;;5054858;28;20223;-76
2021/03/06 13:44:22;;;;;;;0.08;0.08;;;;;;;;;;5054813;28;20177;-76
2021/03/06 13:46:48;;;;;;;0.00;0.00;;;;;;;;;;5054948;28;20197;-76
2021/03/06 13:49:15;;;;;;;1.13;1.02;;;;;;;;;;5052955;28;20225;-76
2021/03/06 13:51:41;;;;;;;0.20;0.20;;;;;;;;;;5054248;28;20201;-76
2021/03/06 13:54:08;;;;;;;0.08;0.08;;;;;;;;;;5053570;28;20188;-75
2021/03/06 13:56:35;;;;;;;0.20;0.20;;;;;;;;;;5054955;28;20185;-75
2021/03/06 13:59:01;;;;;;;0.10;0.10;;;;;;;;;;5054539;28;20661;-75
2021/03/06 14:01:28;;;;;;;0.50;0.50;;;;;;;;;;5053827;28;20197;-76
2021/03/06 14:03:55;;;;;;;0.30;0.30;;;;;;;;;;5054825;28;20630;-76
2021/03/06 14:06:22;;;;;;;0.10;0.10;;;;;;;;;;5053533;28;20157;-76
2021/03/06 14:08:48;;;;;;;0.10;0.10;;;;;;;;;;5055128;28;20214;-76
2021/03/06 14:11:14;;;;;;;0.00;0.00;;;;;;;;;;5053613;28;20196;-76
2021/03/06 14:13:41;;;;;;;0.10;0.10;;;;;;;;;;5054605;28;20212;-76
2021/03/06 14:16:08;;;;;;;0.25;0.25;;;;;;;;;;5053143;28;20165;-76
2021/03/06 14:18:36;;;;;;;0.08;0.08;;;;;;;;;;5053572;28;20205;-75
2021/03/06 14:21:02;;;;;;;1.02;1.00;;;;;;;;;;5050887;28;20272;-75
2021/03/06 14:23:28;;;;;;;0.10;0.10;;;;;;;;;;5050069;28;20545;-76
2021/03/06 14:25:54;;;;;;;0.35;0.35;;;;;;;;;;5051592;28;20297;-75
2021/03/06 14:28:21;;;;;;;0.03;0.03;;;;;;;;;;5051525;28;20150;-75
2021/03/06 14:30:47;;;;;;;0.00;0.00;;;;;;;;;;5050178;28;20169;-76
2021/03/06 14:33:13;;;;;;;0.10;0.10;;;;;;;;;;5051581;28;20217;-76
2021/03/06 14:35:39;;;;;;;0.20;0.20;;;;;;;;;;5051149;28;20166;-75
2021/03/06 14:38:05;;;;;;;0.10;0.10;;;;;;;;;;5051138;28;20165;-76
2021/03/06 14:40:32;;;;;;;0.10;0.10;;;;;;;;;;5050927;28;20200;-75
2021/03/06 14:42:58;;;;;;;0.05;0.05;;;;;;;;;;5049899;28;20658;-75
2021/03/06 14:45:24;;;;;;;0.10;0.10;;;;;;;;;;5051121;28;20157;-76
2021/03/06 14:47:50;;;;;;;0.40;0.40;;;;;;;;;;5050857;28;20217;-74
2021/03/06 14:50:17;;;;;;;0.00;0.00;;;;;;;;;;5051166;28;20189;-76
2021/03/06 14:52:43;;;;;;;0.00;0.00;;;;;;;;;;5050848;28;20201;-76